Time;durP1;ratioP1;P1;durP2;ratioP2;P2;SDS_P1;SDS_P2;PMS_P1;PMS_P2;Temp;Humidity;BMP_temperature;BMP_pressure;BME280_temperature;BME280_humidity;BME280_pressure;Samples;Min_cycle;Max_cycle;Signal;HPM_P1;HPM_P2
2023/12/18 00:02:03;;;;;;;;;;;;;;;25.51;32.49;96085.78;5062315;28;7053;-62
2023/12/18 00:04:31;;;;;;;;;;;;;;;25.49;31.81;96086.25;5060676;28;7026;-62
2023/12/18 00:07:01;;;;;;;;;;;;;;;25.49;32.73;96082.75;5046364;28;9086;-61
2023/12/18 00:09:27;;;;;;;;;;;;;;;25.51;32.44;96078.31;5061871;28;9224;-62
2023/12/18 00:12:07;;;;;;;;;;;;;;;25.47;32.26;96077.69;5039472;28;9459;-63
2023/12/18 00:15:07;;;;;;;;;;;;;;;25.48;32.36;96081.97;5060700;28;9419;-62
2023/12/18 00:17:35;;;;;;;;;;;;;;;25.46;33.29;96073.44;5009203;28;7313;-62
2023/12/18 00:20:05;;;;;;;;;;;;;;;25.50;32.56;96078.75;4978092;28;7319;-61
2023/12/18 00:22:40;;;;;;;;;;;;;;;25.48;33.01;96070.97;5010234;28;7310;-62
2023/12/18 00:25:07;;;;;;;;;;;;;;;25.46;32.57;96067.91;4991360;28;6926;-62
2023/12/18 00:27:42;;;;;;;;;;;;;;;25.48;33.03;96059.94;5011836;28;7006;-57
2023/12/18 00:30:12;;;;;;;;;;;;;;;25.41;33.34;96052.00;4994031;28;9174;-57
2023/12/18 00:32:57;;;;;;;;;;;;;;;25.44;32.84;96048.34;5002252;28;8824;-57
2023/12/18 00:35:42;;;;;;;;;;;;;;;25.47;32.52;96055.66;5007290;28;7317;-57
2023/12/18 00:38:10;;;;;;;;;;;;;;;25.49;32.53;96050.44;4994962;28;7208;-57
2023/12/18 00:40:38;;;;;;;;;;;;;;;25.49;33.00;96042.16;5001952;28;6986;-57
2023/12/18 00:43:19;;;;;;;;;;;;;;;25.47;32.84;96041.88;5005029;28;8720;-57
2023/12/18 00:46:04;;;;;;;;;;;;;;;25.45;32.95;96041.59;4992731;28;7165;-57
2023/12/18 00:49:01;;;;;;;;;;;;;;;25.47;33.73;96049.41;5009901;28;7044;-57
2023/12/18 00:51:27;;;;;;;;;;;;;;;25.46;33.17;96045.13;4949966;28;7001;-57
2023/12/18 00:53:55;;;;;;;;;;;;;;;25.45;32.73;96044.34;4990349;28;7251;-56
2023/12/18 00:56:21;;;;;;;;;;;;;;;25.46;33.26;96042.34;5010085;28;7244;-57
2023/12/18 00:58:47;;;;;;;;;;;;;;;25.43;32.62;96044.06;5013691;28;9585;-57
2023/12/18 01:01:13;;;;;;;;;;;;;;;25.42;32.84;96040.53;5002516;28;6983;-56
2023/12/18 01:03:42;;;;;;;;;;;;;;;25.41;32.74;96044.50;4997643;28;8583;-57
2023/12/18 01:06:18;;;;;;;;;;;;;;;25.42;33.22;96037.78;5002539;28;8567;-57
2023/12/18 01:08:58;;;;;;;;;;;;;;;25.41;33.20;96040.97;5006370;28;7168;-56
2023/12/18 01:11:39;;;;;;;;;;;;;;;25.38;33.73;96041.94;5005888;28;8079;-57
2023/12/18 01:14:05;;;;;;;;;;;;;;;25.38;33.42;96042.69;4998205;28;7149;-56
2023/12/18 01:16:48;;;;;;;;;;;;;;;25.41;33.33;96046.50;4999644;28;7417;-57
2023/12/18 01:19:16;;;;;;;;;;;;;;;25.38;33.60;96041.94;5000592;28;7266;-57
2023/12/18 01:21:44;;;;;;;;;;;;;;;25.41;33.47;96038.22;5012003;28;7255;-57
2023/12/18 01:24:12;;;;;;;;;;;;;;;25.34;32.91;96031.09;4993963;28;7268;-57
2023/12/18 01:26:38;;;;;;;;;;;;;;;25.36;34.05;96031.38;5016361;28;8254;-57
2023/12/18 01:29:07;;;;;;;;;;;;;;;25.35;32.95;96035.38;5064955;28;7257;-56
2023/12/18 01:31:33;;;;;;;;;;;;;;;25.40;33.39;96042.22;5064717;28;8518;-57
2023/12/18 01:34:50;;;;;;;;;;;;;;;25.40;32.83;96039.47;5060869;28;7072;-57
2023/12/18 01:37:16;;;;;;;;;;;;;;;25.40;34.06;96033.97;5003441;28;7238;-57
2023/12/18 01:39:51;;;;;;;;;;;;;;;25.38;33.10;96030.91;5020712;28;7230;-56
2023/12/18 01:42:19;;;;;;;;;;;;;;;25.41;33.76;96043.75;5005481;28;7214;-56
2023/12/18 01:44:44;;;;;;;;;;;;;;;25.39;33.75;96037.94;5002133;28;7173;-56
2023/12/18 01:47:12;;;;;;;;;;;;;;;25.41;33.89;96041.75;4996579;28;9038;-56
2023/12/18 01:49:38;;;;;;;;;;;;;;;25.41;33.02;96032.72;5019179;28;6945;-56
2023/12/18 01:52:12;;;;;;;;;;;;;;;25.42;33.61;96039.78;5010417;28;7009;-56
2023/12/18 01:54:43;;;;;;;;;;;;;;;25.40;33.27;96040.22;5011862;28;8192;-56
2023/12/18 01:57:38;;;;;;;;;;;;;;;25.42;33.65;96043.28;5007562;28;7180;-56
2023/12/18 02:00:09;;;;;;;;;;;;;;;25.41;33.29;96038.22;4995058;28;7616;-57
2023/12/18 02:03:00;;;;;;;;;;;;;;;25.41;33.41;96039.00;4999095;28;7178;-56
2023/12/18 02:05:29;;;;;;;;;;;;;;;25.41;33.74;96039.00;4985983;28;7068;-56
2023/12/18 02:08:26;;;;;;;;;;;;;;;25.42;33.04;96037.03;5018165;28;7491;-56
2023/12/18 02:11:01;;;;;;;;;;;;;;;25.41;34.08;96035.47;4919948;28;7408;-56
2023/12/18 02:13:42;;;;;;;;;;;;;;;25.42;34.09;96031.53;4962719;28;7095;-56
2023/12/18 02:16:10;;;;;;;;;;;;;;;25.42;34.14;96024.00;4962901;28;6965;-57
2023/12/18 02:19:14;;;;;;;;;;;;;;;25.42;34.00;96026.75;4959211;28;8056;-57
2023/12/18 02:21:49;;;;;;;;;;;;;;;25.42;33.66;96015.00;4972759;28;9810;-56
2023/12/18 02:24:19;;;;;;;;;;;;;;;25.43;34.13;96016.50;4949362;28;9507;-57
2023/12/18 02:26:47;;;;;;;;;;;;;;;25.42;33.36;96015.00;4955104;28;8757;-57
2023/12/18 02:29:14;;;;;;;;;;;;;;;25.43;34.08;96011.00;4978006;28;7185;-57
2023/12/18 02:31:44;;;;;;;;;;;;;;;25.43;33.61;96005.50;4972530;28;9082;-56
2023/12/18 02:34:11;;;;;;;;;;;;;;;25.46;34.46;96007.31;4948969;28;7043;-56
2023/12/18 02:36:38;;;;;;;;;;;;;;;25.46;34.10;95999.06;4964040;28;7421;-56
2023/12/18 02:39:06;;;;;;;;;;;;;;;25.45;33.40;95997.50;4957392;28;8779;-57
2023/12/18 02:41:33;;;;;;;;;;;;;;;25.47;33.63;95991.56;4952636;28;7129;-56
2023/12/18 02:44:01;;;;;;;;;;;;;;;25.45;33.94;95997.50;4951577;28;9973;-56
2023/12/18 02:46:27;;;;;;;;;;;;;;;25.46;34.43;95998.28;4967205;28;7363;-56
2023/12/18 02:48:55;;;;;;;;;;;;;;;25.46;33.70;95999.06;5067768;28;7180;-56
2023/12/18 02:51:21;;;;;;;;;;;;;;;25.45;33.86;95994.75;5036238;28;7242;-56
2023/12/18 02:53:47;;;;;;;;;;;;;;;25.44;33.96;95987.75;5050894;28;9501;-57
2023/12/18 02:56:26;;;;;;;;;;;;;;;25.47;34.30;95989.53;5054386;28;9429;-56
2023/12/18 02:58:54;;;;;;;;;;;;;;;25.47;34.05;95983.28;5057409;28;9038;-56
2023/12/18 03:01:20;;;;;;;;;;;;;;;25.46;33.60;95990.00;5063090;28;9564;-56
2023/12/18 03:03:47;;;;;;;;;;;;;;;25.45;34.44;95994.03;5064280;28;6996;-56
2023/12/18 03:06:13;;;;;;;;;;;;;;;25.46;33.50;95998.28;5056599;28;6992;-56
2023/12/18 03:08:39;;;;;;;;;;;;;;;25.42;34.08;95985.44;5045638;28;7183;-56
2023/12/18 03:11:05;;;;;;;;;;;;;;;25.45;33.64;95989.25;5047302;28;8767;-56
2023/12/18 03:13:33;;;;;;;;;;;;;;;25.43;33.92;95984.22;5068818;28;9094;-56
2023/12/18 03:16:04;;;;;;;;;;;;;;;25.46;33.57;95979.75;5054890;28;7250;-56
2023/12/18 03:18:31;;;;;;;;;;;;;;;25.48;33.66;95980.06;5045106;28;7260;-57
2023/12/18 03:21:00;;;;;;;;;;;;;;;25.44;34.00;95979.47;5063179;28;7669;-56
2023/12/18 03:23:26;;;;;;;;;;;;;;;25.43;34.10;95980.69;5041860;28;7248;-56
2023/12/18 03:25:52;;;;;;;;;;;;;;;25.42;34.06;95987.47;5045761;28;9180;-56
2023/12/18 03:28:18;;;;;;;;;;;;;;;25.43;33.54;95983.44;5057371;28;7232;-55
2023/12/18 03:31:16;;;;;;;;;;;;;;;25.45;33.48;95988.50;5046649;28;7057;-56
2023/12/18 03:34:16;;;;;;;;;;;;;;;25.45;33.44;95985.75;5008746;28;6988;-56
2023/12/18 03:37:15;;;;;;;;;;;;;;;25.44;34.07;95996.00;4997678;28;7646;-56
2023/12/18 03:39:51;;;;;;;;;;;;;;;25.45;34.03;95994.03;4987872;28;7516;-56
2023/12/18 03:42:19;;;;;;;;;;;;;;;25.45;33.37;95988.50;5012039;28;7198;-57
2023/12/18 03:44:46;;;;;;;;;;;;;;;25.45;33.87;95992.00;4999113;28;7324;-56
2023/12/18 03:47:42;;;;;;;;;;;;;;;25.47;34.66;95984.03;5007809;28;6987;-56
2023/12/18 03:50:13;;;;;;;;;;;;;;;25.47;34.75;95978.53;5012721;28;9328;-56
2023/12/18 03:52:59;;;;;;;;;;;;;;;25.47;34.17;95983.28;5002427;28;9768;-56
2023/12/18 03:55:27;;;;;;;;;;;;;;;25.46;33.62;95979.00;5009816;28;9167;-63
2023/12/18 03:58:00;;;;;;;;;;;;;;;25.46;34.27;95982.53;5011240;28;7263;-63
2023/12/18 04:00:30;;;;;;;;;;;;;;;25.43;33.87;95970.44;4996864;28;6991;-62
2023/12/18 04:03:11;;;;;;;;;;;;;;;25.46;33.40;95981.75;5013625;28;9154;-63
2023/12/18 04:05:38;;;;;;;;;;;;;;;25.44;34.20;95973.97;4992373;28;7285;-63
2023/12/18 04:08:05;;;;;;;;;;;;;;;25.44;34.02;95968.47;5013300;28;7259;-62
2023/12/18 04:10:33;;;;;;;;;;;;;;;25.45;34.61;95971.97;5039008;28;7307;-63
2023/12/18 04:13:08;;;;;;;;;;;;;;;25.44;33.73;95968.47;5063394;28;8242;-62
2023/12/18 04:15:39;;;;;;;;;;;;;;;25.45;33.77;95966.47;5046554;28;7166;-63
2023/12/18 04:18:07;;;;;;;;;;;;;;;25.44;33.64;95968.47;5075139;28;7371;-63
2023/12/18 04:20:45;;;;;;;;;;;;;;;25.42;34.01;95966.16;5060811;28;8212;-62
2023/12/18 04:23:13;;;;;;;;;;;;;;;25.44;34.17;95971.22;5068550;28;7805;-62
2023/12/18 04:25:45;;;;;;;;;;;;;;;25.45;33.74;95972.72;5051774;28;7197;-62
2023/12/18 04:28:13;;;;;;;;;;;;;;;25.44;33.97;95968.47;5057369;28;7029;-62
2023/12/18 04:30:48;;;;;;;;;;;;;;;25.46;33.96;95960.47;5054713;28;6996;-63
2023/12/18 04:33:15;;;;;;;;;;;;;;;25.47;34.70;95964.75;5056623;28;7088;-62
2023/12/18 04:35:43;;;;;;;;;;;;;;;25.47;34.14;95967.50;5060064;28;7375;-62
2023/12/18 04:38:42;;;;;;;;;;;;;;;25.47;34.34;95973.00;5076240;28;8788;-62
2023/12/18 04:41:17;;;;;;;;;;;;;;;25.45;34.23;95961.69;4992745;28;7229;-63
2023/12/18 04:43:49;;;;;;;;;;;;;;;25.46;33.34;95962.47;4989145;28;7274;-62
2023/12/18 04:47:02;;;;;;;;;;;;;;;25.46;34.17;95960.47;5003521;28;8091;-63
2023/12/18 04:49:28;;;;;;;;;;;;;;;25.43;33.55;95961.41;4926517;29;6949;-62
2023/12/18 04:51:54;;;;;;;;;;;;;;;25.46;33.71;95970.72;4917143;29;7449;-62
2023/12/18 04:54:22;;;;;;;;;;;;;;;25.44;34.20;95973.97;4929040;28;7065;-62
2023/12/18 04:56:55;;;;;;;;;;;;;;;25.47;34.05;95961.25;4944381;28;7399;-62
2023/12/18 04:59:33;;;;;;;;;;;;;;;25.46;33.78;95962.47;4926374;29;8632;-63
2023/12/18 05:02:09;;;;;;;;;;;;;;;25.45;33.76;95960.97;4936589;28;7008;-62
2023/12/18 05:04:49;;;;;;;;;;;;;;;25.46;34.26;95968.75;4929388;28;7062;-62
2023/12/18 05:07:27;;;;;;;;;;;;;;;25.46;33.52;95974.25;4904732;29;7062;-65
2023/12/18 05:09:57;;;;;;;;;;;;;;;25.46;34.60;95970.72;4933379;29;7225;-65
2023/12/18 05:12:35;;;;;;;;;;;;;;;25.45;34.48;95967.22;4918526;29;7270;-65
2023/12/18 05:15:03;;;;;;;;;;;;;;;25.47;33.90;95984.03;4928462;28;9437;-65
2023/12/18 05:17:30;;;;;;;;;;;;;;;25.50;33.91;95982.31;4930623;28;7519;-64
2023/12/18 05:19:57;;;;;;;;;;;;;;;25.49;33.48;95978.81;4967479;28;6928;-64
2023/12/18 05:22:27;;;;;;;;;;;;;;;25.47;33.63;95977.78;4969742;28;7740;-64
2023/12/18 05:24:54;;;;;;;;;;;;;;;25.45;34.50;95977.50;4972000;28;7928;-64
2023/12/18 05:27:28;;;;;;;;;;;;;;;25.46;34.15;95971.50;5049831;28;7147;-64
2023/12/18 05:30:42;;;;;;;;;;;;;;;25.41;33.71;95978.41;5055817;28;8872;-64
2023/12/18 05:33:10;;;;;;;;;;;;;;;25.41;34.28;95986.66;4982552;28;9213;-64
2023/12/18 05:35:49;;;;;;;;;;;;;;;25.41;33.83;95975.63;4998892;28;9718;-63
2023/12/18 05:38:28;;;;;;;;;;;;;;;25.43;33.61;95981.47;5011309;28;7344;-64
2023/12/18 05:40:58;;;;;;;;;;;;;;;25.43;34.16;95977.94;4998021;28;7003;-64
2023/12/18 05:43:38;;;;;;;;;;;;;;;25.45;34.28;95980.25;4993614;28;7229;-63
2023/12/18 05:46:10;;;;;;;;;;;;;;;25.48;33.71;95973.78;4994543;28;7252;-64
2023/12/18 05:48:38;;;;;;;;;;;;;;;25.49;34.29;95976.06;4997886;28;9251;-65
2023/12/18 05:51:19;;;;;;;;;;;;;;;25.54;33.60;95971.88;5017476;28;7251;-65
2023/12/18 05:53:45;;;;;;;;;;;;;;;25.51;33.66;95973.59;5010349;28;7081;-65
2023/12/18 05:56:14;;;;;;;;;;;;;;;25.51;34.14;95973.59;5001645;28;7050;-65
2023/12/18 05:58:51;;;;;;;;;;;;;;;25.56;33.87;95981.19;4996288;28;7258;-65
2023/12/18 06:01:24;;;;;;;;;;;;;;;25.57;33.65;95985.50;4995915;28;6951;-65
2023/12/18 06:04:06;;;;;;;;;;;;;;;25.59;33.50;95990.53;4989627;28;7248;-65
2023/12/18 06:06:32;;;;;;;;;;;;;;;25.61;33.39;95988.06;4993628;28;7435;-66
2023/12/18 06:08:58;;;;;;;;;;;;;;;25.62;34.09;95984.81;5007496;28;6978;-64
2023/12/18 06:11:24;;;;;;;;;;;;;;;25.64;33.24;95987.13;5074106;28;7032;-65
2023/12/18 06:13:50;;;;;;;;;;;;;;;25.63;33.80;95980.06;5044747;28;9141;-65
2023/12/18 06:16:16;;;;;;;;;;;;;;;25.63;34.19;95980.84;5052356;28;9394;-65
2023/12/18 06:19:08;;;;;;;;;;;;;;;25.65;33.42;95981.13;5069637;28;8286;-64
2023/12/18 06:21:50;;;;;;;;;;;;;;;25.65;34.83;95986.63;4999077;28;6966;-64
2023/12/18 06:24:29;;;;;;;;;;;;;;;25.66;33.44;95984.66;4990072;28;7237;-64
2023/12/18 06:27:28;;;;;;;;;;;;;;;25.67;33.30;95981.41;4970970;28;6970;-64
2023/12/18 06:30:04;;;;;;;;;;;;;;;25.68;34.84;95976.66;4904091;29;7003;-65
2023/12/18 06:32:30;;;;;;;;;;;;;;;25.69;33.85;95975.41;4907615;29;6983;-65
2023/12/18 06:35:00;;;;;;;;;;;;;;;25.68;33.65;95977.44;4907982;29;7329;-65
2023/12/18 06:37:26;;;;;;;;;;;;;;;25.69;33.90;95965.16;4923373;29;7014;-65
2023/12/18 06:40:03;;;;;;;;;;;;;;;25.70;33.46;95966.69;4916102;29;7413;-65
2023/12/18 06:42:30;;;;;;;;;;;;;;;25.72;33.59;95971.72;4918776;29;7257;-65
2023/12/18 06:45:06;;;;;;;;;;;;;;;25.71;33.11;95973.72;4909612;29;7474;-65
2023/12/18 06:47:32;;;;;;;;;;;;;;;25.68;33.66;95971.16;4924778;29;6981;-65
2023/12/18 06:50:00;;;;;;;;;;;;;;;25.72;33.87;95972.50;4912921;29;7058;-65
2023/12/18 06:52:27;;;;;;;;;;;;;;;25.69;33.68;95973.44;4902015;29;7765;-65
2023/12/18 06:54:53;;;;;;;;;;;;;;;25.60;32.03;95973.50;4904351;29;7456;-65
2023/12/18 06:57:23;;;;;;;;;;;;;;;25.47;31.16;95962.00;4922467;28;7254;-65
2023/12/18 06:59:51;;;;;;;;;;;;;;;25.37;30.46;95980.56;4960791;28;6861;-64
2023/12/18 07:02:30;;;;;;;;;;;;;;;25.26;29.50;95974.06;4945972;28;7372;-65
2023/12/18 07:04:56;;;;;;;;;;;;;;;25.21;28.63;95981.00;4983876;28;7287;-65
2023/12/18 07:07:24;;;;;;;;;;;;;;;25.20;27.84;95976.72;5060473;28;7945;-66
2023/12/18 07:09:52;;;;;;;;;;;;;;;25.16;27.65;95975.38;5058679;28;7151;-65
2023/12/18 07:12:27;;;;;;;;;;;;;;;25.21;28.23;95977.47;5059167;28;7062;-64
2023/12/18 07:15:33;;;;;;;;;;;;;;;25.24;27.74;95976.53;5054490;28;9005;-65
2023/12/18 07:18:14;;;;;;;;;;;;;;;25.26;28.24;95979.59;5056515;28;8936;-65
2023/12/18 07:20:50;;;;;;;;;;;;;;;25.23;28.50;95970.25;5051059;28;7052;-65
2023/12/18 07:23:27;;;;;;;;;;;;;;;25.28;27.76;95980.63;5046775;28;9123;-65
2023/12/18 07:26:00;;;;;;;;;;;;;;;25.29;28.99;95984.91;5046603;28;7200;-57
2023/12/18 07:28:45;;;;;;;;;;;;;;;25.31;29.14;95992.72;5075904;28;8471;-57
2023/12/18 07:31:26;;;;;;;;;;;;;;;25.32;28.49;95983.19;5054058;28;7195;-57
2023/12/18 07:34:00;;;;;;;;;;;;;;;25.33;28.88;95990.25;5051409;28;7336;-56
2023/12/18 07:36:35;;;;;;;;;;;;;;;25.33;29.20;95984.75;5056821;28;7266;-57
2023/12/18 07:39:05;;;;;;;;;;;;;;;25.33;29.48;95985.50;5039940;28;9853;-57
2023/12/18 07:41:50;;;;;;;;;;;;;;;25.36;30.28;95992.03;5064764;28;6985;-57
2023/12/18 07:44:25;;;;;;;;;;;;;;;25.39;30.00;95993.88;5064657;28;9033;-58
2023/12/18 07:46:54;;;;;;;;;;;;;;;25.40;29.51;95989.91;5054053;28;7253;-57
2023/12/18 07:49:22;;;;;;;;;;;;;;;25.39;29.96;95997.38;5075837;28;6993;-57
2023/12/18 07:51:50;;;;;;;;;;;;;;;25.40;30.13;96004.41;5053300;28;7036;-56
2023/12/18 07:54:26;;;;;;;;;;;;;;;25.39;30.55;95991.88;5081401;28;7148;-57
2023/12/18 07:57:22;;;;;;;;;;;;;;;25.42;30.62;95999.22;5047743;28;7872;-57
2023/12/18 08:00:03;;;;;;;;;;;;;;;25.40;30.76;95992.66;4994619;28;8581;-57
2023/12/18 08:02:31;;;;;;;;;;;;;;;25.41;30.44;96002.41;4979198;28;9082;-57
2023/12/18 08:05:17;;;;;;;;;;;;;;;25.40;30.55;95998.16;5006909;28;7388;-57
2023/12/18 08:08:03;;;;;;;;;;;;;;;25.39;29.63;95989.13;4988587;28;6959;-57
2023/12/18 08:10:32;;;;;;;;;;;;;;;25.38;29.94;95981.34;4989206;28;7284;-57
2023/12/18 08:13:17;;;;;;;;;;;;;;;25.40;30.18;95984.38;4982763;28;7213;-57
2023/12/18 08:15:54;;;;;;;;;;;;;;;25.38;30.51;95986.84;4970386;28;7408;-57
2023/12/18 08:18:31;;;;;;;;;;;;;;;25.41;30.71;95980.38;4974913;28;8955;-57
2023/12/18 08:20:58;;;;;;;;;;;;;;;25.41;30.27;95992.16;4988371;28;7034;-56
2023/12/18 08:23:43;;;;;;;;;;;;;;;25.40;30.26;95985.13;4983092;28;7277;-57
2023/12/18 08:26:13;;;;;;;;;;;;;;;25.41;30.11;95992.16;4995139;28;7188;-57
2023/12/18 08:28:47;;;;;;;;;;;;;;;25.42;30.78;95990.22;4989521;28;7145;-57
2023/12/18 08:31:13;;;;;;;;;;;;;;;25.43;30.19;95991.72;4981717;28;8655;-58
2023/12/18 08:33:40;;;;;;;;;;;;;;;25.42;31.04;95987.47;4973974;28;7374;-57
2023/12/18 08:36:09;;;;;;;;;;;;;;;25.42;31.18;95981.94;5011821;28;7217;-63
2023/12/18 08:38:36;;;;;;;;;;;;;;;25.43;31.56;95967.69;5060060;28;9102;-63
2023/12/18 08:41:04;;;;;;;;;;;;;;;25.44;30.69;95962.94;5056327;28;9438;-62
2023/12/18 08:43:32;;;;;;;;;;;;;;;25.43;31.40;95953.91;5058955;28;7260;-62
2023/12/18 08:46:01;;;;;;;;;;;;;;;25.46;30.47;95962.47;5050456;28;7000;-62
2023/12/18 08:48:27;;;;;;;;;;;;;;;25.42;30.63;95960.66;5055965;28;7283;-63
2023/12/18 08:50:53;;;;;;;;;;;;;;;25.43;30.16;95955.91;5059390;28;7073;-62
2023/12/18 08:53:19;;;;;;;;;;;;;;;25.43;30.65;95953.91;5067073;28;8688;-62
2023/12/18 08:55:46;;;;;;;;;;;;;;;25.41;30.90;95948.09;5039363;28;7156;-63
2023/12/18 08:58:14;;;;;;;;;;;;;;;25.45;30.82;95958.22;5044271;28;7406;-63
2023/12/18 09:00:42;;;;;;;;;;;;;;;25.43;31.13;95955.91;5054737;28;7284;-63
2023/12/18 09:03:09;;;;;;;;;;;;;;;25.47;30.32;95962.00;5066239;28;7250;-62
2023/12/18 09:05:41;;;;;;;;;;;;;;;25.47;30.86;95961.25;5055394;28;9092;-63
2023/12/18 09:08:18;;;;;;;;;;;;;;;25.45;30.59;95953.44;5045906;28;9218;-63
2023/12/18 09:10:46;;;;;;;;;;;;;;;25.47;31.42;95955.75;5039382;28;8795;-62
2023/12/18 09:13:14;;;;;;;;;;;;;;;25.47;30.76;95950.97;5058942;28;9211;-63
2023/12/18 09:15:43;;;;;;;;;;;;;;;25.47;31.05;95955.75;5071299;28;8943;-63
2023/12/18 09:18:10;;;;;;;;;;;;;;;25.51;31.24;95950.81;5061779;28;9620;-62
2023/12/18 09:20:38;;;;;;;;;;;;;;;25.47;31.15;95945.47;5050549;28;7045;-63
2023/12/18 09:23:10;;;;;;;;;;;;;;;25.50;31.88;95946.50;5045828;28;7395;-63
2023/12/18 09:25:38;;;;;;;;;;;;;;;25.49;31.47;95945.00;5068243;28;10226;-62
2023/12/18 09:28:07;;;;;;;;;;;;;;;25.51;31.73;95946.06;5052932;28;7383;-63
2023/12/18 09:30:44;;;;;;;;;;;;;;;25.53;31.48;95943.59;5052539;28;7251;-63
2023/12/18 09:33:14;;;;;;;;;;;;;;;25.54;31.09;95944.31;5079020;28;7247;-62
2023/12/18 09:35:42;;;;;;;;;;;;;;;25.56;30.97;95944.63;5059672;28;9379;-63
2023/12/18 09:38:10;;;;;;;;;;;;;;;25.55;31.20;95937.59;5075087;28;8984;-62
2023/12/18 09:40:36;;;;;;;;;;;;;;;25.57;31.13;95943.41;5058536;28;7155;-62
2023/12/18 09:43:06;;;;;;;;;;;;;;;25.55;31.37;95941.13;5071813;28;7629;-62
2023/12/18 09:45:34;;;;;;;;;;;;;;;25.55;31.01;95945.88;5059482;28;7171;-62
2023/12/18 09:48:07;;;;;;;;;;;;;;;25.54;31.09;95947.09;5070889;28;6965;-62
2023/12/18 09:50:36;;;;;;;;;;;;;;;25.52;31.22;95933.03;5045973;28;6992;-63
2023/12/18 09:53:14;;;;;;;;;;;;;;;25.54;31.94;95931.31;5041969;28;9176;-62
2023/12/18 09:55:42;;;;;;;;;;;;;;;25.54;31.38;95931.31;5070934;28;6982;-62
2023/12/18 09:58:24;;;;;;;;;;;;;;;25.52;31.30;95914.50;5071309;28;7391;-62
2023/12/18 10:01:05;;;;;;;;;;;;;;;25.54;31.50;95920.31;5053677;28;7312;-62
2023/12/18 10:03:33;;;;;;;;;;;;;;;25.55;31.46;95916.31;5067796;28;7462;-62
2023/12/18 10:06:32;;;;;;;;;;;;;;;25.60;30.96;95923.91;5053614;28;7232;-63
2023/12/18 10:09:03;;;;;;;;;;;;;;;25.56;31.92;95920.59;4994722;28;7520;-63
2023/12/18 10:11:31;;;;;;;;;;;;;;;25.62;31.86;95917.94;4998634;28;7534;-63
2023/12/18 10:14:02;;;;;;;;;;;;;;;25.62;31.21;95920.69;4995397;28;7465;-63
2023/12/18 10:16:33;;;;;;;;;;;;;;;25.62;31.56;95907.66;4986536;28;9030;-63
2023/12/18 10:18:59;;;;;;;;;;;;;;;25.64;31.23;95915.47;4981551;28;7718;-63
2023/12/18 10:21:26;;;;;;;;;;;;;;;25.64;32.22;95909.97;4979572;28;8135;-63
2023/12/18 10:23:53;;;;;;;;;;;;;;;25.61;31.92;95897.13;4996512;28;8819;-64
2023/12/18 10:26:21;;;;;;;;;;;;;;;25.64;31.47;95901.69;4974487;28;7485;-64
2023/12/18 10:28:52;;;;;;;;;;;;;;;25.65;31.49;95894.94;4977024;28;9161;-64
2023/12/18 10:31:22;;;;;;;;;;;;;;;25.66;31.86;95904.72;4976993;28;7219;-63
2023/12/18 10:33:51;;;;;;;;;;;;;;;25.64;31.28;95898.94;4980149;28;7424;-64
2023/12/18 10:36:27;;;;;;;;;;;;;;;25.65;31.61;95897.69;4999138;28;7735;-64
2023/12/18 10:38:59;;;;;;;;;;;;;;;25.62;31.83;95896.63;5001092;28;7163;-63
2023/12/18 10:41:30;;;;;;;;;;;;;;;25.62;31.13;95895.91;4987189;28;7332;-63
2023/12/18 10:43:58;;;;;;;;;;;;;;;25.66;31.55;95894.47;5017386;28;9058;-63
2023/12/18 10:46:26;;;;;;;;;;;;;;;25.66;31.54;95883.47;5046372;28;8631;-63
2023/12/18 10:48:56;;;;;;;;;;;;;;;25.67;31.65;95881.44;5065899;28;7039;-64
2023/12/18 10:51:23;;;;;;;;;;;;;;;25.68;31.44;95872.72;5045705;28;7253;-63
2023/12/18 10:53:53;;;;;;;;;;;;;;;25.67;31.33;95871.19;5058430;28;7405;-64
2023/12/18 10:56:29;;;;;;;;;;;;;;;25.68;31.87;95867.22;5067773;28;6942;-63
2023/12/18 10:58:59;;;;;;;;;;;;;;;25.68;31.94;95863.69;5073061;28;7527;-63
2023/12/18 11:01:32;;;;;;;;;;;;;;;25.68;31.81;95864.44;5065212;28;9235;-63
2023/12/18 11:04:00;;;;;;;;;;;;;;;25.66;31.93;95864.16;5074645;28;7093;-63
2023/12/18 11:06:30;;;;;;;;;;;;;;;25.69;31.65;95865.19;5050799;28;7239;-63
2023/12/18 11:08:56;;;;;;;;;;;;;;;25.67;31.04;95860.16;5056420;28;6990;-63
2023/12/18 11:11:26;;;;;;;;;;;;;;;25.65;31.45;95865.38;5042622;28;7046;-63
2023/12/18 11:13:54;;;;;;;;;;;;;;;25.67;31.04;95857.41;5055454;28;8695;-63
2023/12/18 11:16:35;;;;;;;;;;;;;;;25.66;31.45;95846.88;5045207;28;7137;-63
2023/12/18 11:19:30;;;;;;;;;;;;;;;25.68;31.52;95847.91;5049017;28;8914;-63
2023/12/18 11:21:56;;;;;;;;;;;;;;;25.70;31.82;95839.16;5041448;28;9022;-63
2023/12/18 11:24:24;;;;;;;;;;;;;;;25.72;30.91;95839.44;5032174;28;7464;-63
2023/12/18 11:26:52;;;;;;;;;;;;;;;25.74;31.54;95837.72;5059368;28;8506;-63
2023/12/18 11:29:37;;;;;;;;;;;;;;;25.76;31.44;95832.50;5058291;28;9486;-62
2023/12/18 11:32:06;;;;;;;;;;;;;;;25.79;31.09;95834.31;5053591;28;6994;-63
2023/12/18 11:34:33;;;;;;;;;;;;;;;25.82;31.64;95827.84;5050970;28;7187;-62
2023/12/18 11:37:00;;;;;;;;;;;;;;;25.84;31.33;95825.34;5052475;28;9794;-63
2023/12/18 11:39:46;;;;;;;;;;;;;;;25.85;31.20;95813.09;5067858;28;9090;-63
2023/12/18 11:42:13;;;;;;;;;;;;;;;25.87;31.74;95816.13;5060693;28;8733;-63
2023/12/18 11:44:46;;;;;;;;;;;;;;;25.87;32.02;95816.13;5054881;28;6969;-63
2023/12/18 11:47:19;;;;;;;;;;;;;;;25.90;32.07;95809.66;5059314;28;7336;-63
2023/12/18 11:49:46;;;;;;;;;;;;;;;25.89;32.28;95818.41;5058319;28;7517;-63
2023/12/18 11:52:17;;;;;;;;;;;;;;;25.93;31.20;95810.69;5052122;28;7237;-63
2023/12/18 11:54:52;;;;;;;;;;;;;;;25.91;31.75;95808.44;5055547;28;9091;-63
2023/12/18 11:57:23;;;;;;;;;;;;;;;25.90;31.97;95806.91;5053822;28;9098;-63
2023/12/18 11:59:56;;;;;;;;;;;;;;;25.90;31.59;95806.91;5074241;28;7188;-63
2023/12/18 12:02:31;;;;;;;;;;;;;;;25.89;31.61;95808.16;5045392;28;9192;-63
2023/12/18 12:05:02;;;;;;;;;;;;;;;25.89;31.54;95810.13;5063429;28;9150;-63
2023/12/18 12:08:07;;;;;;;;;;;;;;;25.92;32.45;95803.69;5050359;28;7032;-63
2023/12/18 12:10:43;;;;;;;;;;;;;;;25.92;32.04;95804.44;5004443;28;7146;-63
2023/12/18 12:13:23;;;;;;;;;;;;;;;25.95;32.37;95802.69;5006845;28;7295;-63
2023/12/18 12:16:00;;;;;;;;;;;;;;;25.93;31.81;95796.91;4996922;28;8464;-62
2023/12/18 12:19:01;;;;;;;;;;;;;;;25.96;32.25;95805.00;5002120;28;7921;-62
2023/12/18 12:21:36;;;;;;;;;;;;;;;25.98;32.29;95799.75;5009501;28;7674;-62
2023/12/18 12:24:33;;;;;;;;;;;;;;;25.97;31.67;95794.72;4991101;28;7331;-62
2023/12/18 12:27:12;;;;;;;;;;;;;;;25.97;32.19;95798.22;4972220;28;7063;-62
2023/12/18 12:29:38;;;;;;;;;;;;;;;25.96;32.27;95793.97;4947575;28;7370;-63
2023/12/18 12:32:04;;;;;;;;;;;;;;;25.94;31.48;95790.94;4955291;28;7108;-62
2023/12/18 12:34:34;;;;;;;;;;;;;;;25.93;32.50;95783.13;4955567;28;9070;-63
2023/12/18 12:37:11;;;;;;;;;;;;;;;25.97;31.77;95781.69;4950655;28;8819;-62
2023/12/18 12:39:36;;;;;;;;;;;;;;;25.99;32.11;95779.22;4953633;28;9420;-62
2023/12/18 12:42:03;;;;;;;;;;;;;;;26.01;31.74;95768.47;4953409;28;7125;-63
2023/12/18 12:44:31;;;;;;;;;;;;;;;25.99;32.03;95770.94;4975251;28;7161;-62
2023/12/18 12:46:58;;;;;;;;;;;;;;;26.02;31.72;95767.22;4986194;28;8071;-62
2023/12/18 12:49:35;;;;;;;;;;;;;;;26.05;31.83;95765.53;5007337;28;7231;-62
2023/12/18 12:52:05;;;;;;;;;;;;;;;26.00;31.57;95758.69;4980106;28;9464;-63
2023/12/18 12:54:45;;;;;;;;;;;;;;;26.04;31.32;95761.22;4998269;28;9095;-61
2023/12/18 12:57:14;;;;;;;;;;;;;;;26.06;31.84;95764.25;4982765;28;7289;-62
2023/12/18 13:00:12;;;;;;;;;;;;;;;26.07;31.45;95754.75;4989986;28;9047;-62
2023/12/18 13:02:42;;;;;;;;;;;;;;;26.09;31.40;95758.59;5019330;28;9775;-62
2023/12/18 13:05:08;;;;;;;;;;;;;;;26.12;30.71;95752.09;5069349;28;7054;-62
2023/12/18 13:07:35;;;;;;;;;;;;;;;26.15;31.25;95750.38;5042732;28;8173;-63
2023/12/18 13:10:03;;;;;;;;;;;;;;;26.11;30.81;95745.09;5061313;28;9420;-62
2023/12/18 13:12:37;;;;;;;;;;;;;;;26.12;30.90;95740.34;5046882;28;9048;-62
2023/12/18 13:15:06;;;;;;;;;;;;;;;26.15;31.12;95731.06;5065451;28;7873;-62
2023/12/18 13:17:33;;;;;;;;;;;;;;;26.20;30.96;95735.16;5066101;28;9457;-62
2023/12/18 13:20:07;;;;;;;;;;;;;;;26.21;31.25;95731.16;5053677;28;7322;-63
2023/12/18 13:22:44;;;;;;;;;;;;;;;26.26;31.51;95744.25;5054849;28;7330;-62
2023/12/18 13:25:17;;;;;;;;;;;;;;;26.28;31.25;95731.50;5064582;28;7040;-62
2023/12/18 13:27:47;;;;;;;;;;;;;;;26.31;31.99;95733.28;5057345;28;7849;-63
2023/12/18 13:30:40;;;;;;;;;;;;;;;26.35;31.32;95742.13;5056147;28;8503;-63